sensor_id;sensor_type;location;lat;lon;timestamp;pressure;altitude;pressure_sealevel;temperature;humidity
57050;BME280;42935;50.966;16.992;2023-04-06T00:02:42;102066.26;;;-3.38;100.00
57050;BME280;42935;50.966;16.992;2023-04-06T00:06:10;102063.16;;;-3.82;100.00
57050;BME280;42935;50.966;16.992;2023-04-06T00:09:32;102072.66;;;-3.51;100.00
57050;BME280;42935;50.966;16.992;2023-04-06T00:12:55;102073.95;;;-3.43;100.00
57050;BME280;42935;50.966;16.992;2023-04-06T00:16:17;102062.81;;;-3.42;100.00
57050;BME280;42935;50.966;16.992;2023-04-06T00:19:41;102075.55;;;-3.29;100.00
57050;BME280;42935;50.966;16.992;2023-04-06T00:23:04;102071.57;;;-3.47;100.00
57050;BME280;42935;50.966;16.992;2023-04-06T00:26:32;102061.31;;;-3.57;100.00
57050;BME280;42935;50.966;16.992;2023-04-06T00:29:51;102062.82;;;-3.51;100.00
57050;BME280;42935;50.966;16.992;2023-04-06T00:33:14;102062.88;;;-3.58;100.00
57050;BME280;42935;50.966;16.992;2023-04-06T00:36:37;102071.81;;;-3.51;100.00
57050;BME280;42935;50.966;16.992;2023-04-06T00:39:57;102065.72;;;-3.53;100.00
57050;BME280;42935;50.966;16.992;2023-04-06T00:43:17;102053.30;;;-3.74;100.00
57050;BME280;42935;50.966;16.992;2023-04-06T00:46:51;102054.19;;;-3.68;100.00
57050;BME280;42935;50.966;16.992;2023-04-06T00:50:15;102065.39;;;-3.71;100.00
57050;BME280;42935;50.966;16.992;2023-04-06T00:54:01;102064.48;;;-3.75;100.00
57050;BME280;42935;50.966;16.992;2023-04-06T00:57:21;102066.32;;;-3.68;100.00
57050;BME280;42935;50.966;16.992;2023-04-06T01:00:40;102052.96;;;-3.68;100.00
57050;BME280;42935;50.966;16.992;2023-04-06T01:04:04;102065.22;;;-3.56;100.00
57050;BME280;42935;50.966;16.992;2023-04-06T01:07:31;102046.34;;;-3.67;100.00
57050;BME280;42935;50.966;16.992;2023-04-06T01:10:52;102054.62;;;-3.66;100.00
57050;BME280;42935;50.966;16.992;2023-04-06T01:14:19;102036.38;;;-3.83;100.00
57050;BME280;42935;50.966;16.992;2023-04-06T01:17:39;102035.32;;;-3.98;100.00
57050;BME280;42935;50.966;16.992;2023-04-06T01:21:07;102049.16;;;-3.82;100.00
57050;BME280;42935;50.966;16.992;2023-04-06T01:24:32;102052.38;;;-3.88;100.00
57050;BME280;42935;50.966;16.992;2023-04-06T01:27:58;102045.49;;;-3.84;100.00
57050;BME280;42935;50.966;16.992;2023-04-06T01:31:19;102060.01;;;-3.97;100.00
57050;BME280;42935;50.966;16.992;2023-04-06T01:34:46;102062.99;;;-3.84;100.00
57050;BME280;42935;50.966;16.992;2023-04-06T01:38:12;102055.80;;;-3.96;100.00
57050;BME280;42935;50.966;16.992;2023-04-06T01:41:39;102069.64;;;-3.89;100.00
57050;BME280;42935;50.966;16.992;2023-04-06T01:45:00;102065.74;;;-4.00;100.00
57050;BME280;42935;50.966;16.992;2023-04-06T01:48:28;102069.38;;;-3.98;100.00
57050;BME280;42935;50.966;16.992;2023-04-06T01:51:51;102061.60;;;-4.32;100.00
57050;BME280;42935;50.966;16.992;2023-04-06T01:55:12;102072.31;;;-4.16;100.00
57050;BME280;42935;50.966;16.992;2023-04-06T01:58:36;102073.14;;;-4.20;100.00
57050;BME280;42935;50.966;16.992;2023-04-06T02:01:59;102069.90;;;-4.05;100.00
57050;BME280;42935;50.966;16.992;2023-04-06T02:05:23;102072.07;;;-4.14;100.00
57050;BME280;42935;50.966;16.992;2023-04-06T02:08:47;102056.38;;;-4.38;100.00
57050;BME280;42935;50.966;16.992;2023-04-06T02:12:08;102066.57;;;-4.89;100.00
57050;BME280;42935;50.966;16.992;2023-04-06T02:15:31;102058.49;;;-4.64;100.00
57050;BME280;42935;50.966;16.992;2023-04-06T02:18:54;102026.66;;;-4.96;100.00
57050;BME280;42935;50.966;16.992;2023-04-06T02:22:18;102055.27;;;-4.99;100.00
57050;BME280;42935;50.966;16.992;2023-04-06T02:25:40;102055.04;;;-5.23;100.00
57050;BME280;42935;50.966;16.992;2023-04-06T02:29:04;102066.07;;;-4.92;100.00
57050;BME280;42935;50.966;16.992;2023-04-06T02:32:25;102060.55;;;-5.39;100.00
57050;BME280;42935;50.966;16.992;2023-04-06T02:35:48;102071.04;;;-5.35;100.00
57050;BME280;42935;50.966;16.992;2023-04-06T02:39:14;102030.99;;;-5.53;100.00
57050;BME280;42935;50.966;16.992;2023-04-06T02:42:37;102069.09;;;-5.05;100.00
57050;BME280;42935;50.966;16.992;2023-04-06T02:45:56;102061.48;;;-5.42;100.00
57050;BME280;42935;50.966;16.992;2023-04-06T02:49:19;102076.52;;;-5.36;100.00
57050;BME280;42935;50.966;16.992;2023-04-06T02:52:44;102067.15;;;-5.38;100.00
57050;BME280;42935;50.966;16.992;2023-04-06T02:56:07;102069.20;;;-5.48;100.00
57050;BME280;42935;50.966;16.992;2023-04-06T02:59:35;102083.67;;;-5.56;100.00
57050;BME280;42935;50.966;16.992;2023-04-06T03:03:00;102081.10;;;-5.40;100.00
57050;BME280;42935;50.966;16.992;2023-04-06T03:06:20;102072.85;;;-5.31;100.00
57050;BME280;42935;50.966;16.992;2023-04-06T03:09:39;102075.07;;;-5.60;100.00
57050;BME280;42935;50.966;16.992;2023-04-06T03:13:03;102087.22;;;-5.52;100.00
57050;BME280;42935;50.966;16.992;2023-04-06T03:16:30;102074.48;;;-5.40;100.00
57050;BME280;42935;50.966;16.992;2023-04-06T03:19:53;102091.42;;;-5.34;100.00
57050;BME280;42935;50.966;16.992;2023-04-06T03:23:25;102095.18;;;-5.23;100.00
57050;BME280;42935;50.966;16.992;2023-04-06T03:26:48;102097.30;;;-5.53;100.00
57050;BME280;42935;50.966;16.992;2023-04-06T03:30:08;102095.73;;;-5.41;100.00
57050;BME280;42935;50.966;16.992;2023-04-06T03:33:36;102095.73;;;-5.20;100.00
57050;BME280;42935;50.966;16.992;2023-04-06T03:36:55;102094.03;;;-5.39;100.00
57050;BME280;42935;50.966;16.992;2023-04-06T03:40:22;102100.23;;;-5.49;100.00
57050;BME280;42935;50.966;16.992;2023-04-06T03:43:47;102089.25;;;-5.36;100.00
57050;BME280;42935;50.966;16.992;2023-04-06T03:47:11;102093.89;;;-5.38;100.00
57050;BME280;42935;50.966;16.992;2023-04-06T03:50:41;102097.44;;;-5.26;100.00
57050;BME280;42935;50.966;16.992;2023-04-06T03:54:09;102099.96;;;-5.44;100.00
57050;BME280;42935;50.966;16.992;2023-04-06T03:57:35;102122.48;;;-5.36;100.00
57050;BME280;42935;50.966;16.992;2023-04-06T04:01:04;102127.57;;;-5.23;100.00
57050;BME280;42935;50.966;16.992;2023-04-06T04:04:27;102136.17;;;-5.24;100.00
57050;BME280;42935;50.966;16.992;2023-04-06T04:07:51;102137.23;;;-5.24;100.00
57050;BME280;42935;50.966;16.992;2023-04-06T04:11:12;102128.35;;;-4.98;100.00
57050;BME280;42935;50.966;16.992;2023-04-06T04:14:39;102128.38;;;-5.03;100.00
57050;BME280;42935;50.966;16.992;2023-04-06T04:18:03;102114.73;;;-5.16;100.00
57050;BME280;42935;50.966;16.992;2023-04-06T04:21:28;102125.86;;;-5.19;100.00
57050;BME280;42935;50.966;16.992;2023-04-06T04:24:49;102108.37;;;-5.14;100.00
57050;BME280;42935;50.966;16.992;2023-04-06T04:28:12;102126.34;;;-5.18;100.00
57050;BME280;42935;50.966;16.992;2023-04-06T04:31:35;102120.09;;;-5.71;100.00
57050;BME280;42935;50.966;16.992;2023-04-06T04:34:55;102117.95;;;-5.49;100.00
57050;BME280;42935;50.966;16.992;2023-04-06T04:38:18;102126.38;;;-5.40;100.00
57050;BME280;42935;50.966;16.992;2023-04-06T04:41:38;102126.52;;;-5.53;100.00
57050;BME280;42935;50.966;16.992;2023-04-06T04:45:01;102129.91;;;-5.24;100.00
57050;BME280;42935;50.966;16.992;2023-04-06T04:48:28;102128.98;;;-5.31;100.00
57050;BME280;42935;50.966;16.992;2023-04-06T04:51:54;102128.06;;;-5.51;100.00
57050;BME280;42935;50.966;16.992;2023-04-06T04:55:21;102120.83;;;-5.34;100.00
57050;BME280;42935;50.966;16.992;2023-04-06T04:58:44;102122.66;;;-5.51;100.00
57050;BME280;42935;50.966;16.992;2023-04-06T05:02:07;102129.51;;;-5.38;100.00
57050;BME280;42935;50.966;16.992;2023-04-06T05:05:33;102124.53;;;-5.45;100.00
57050;BME280;42935;50.966;16.992;2023-04-06T05:08:53;102125.71;;;-5.19;100.00
57050;BME280;42935;50.966;16.992;2023-04-06T05:12:14;102123.10;;;-4.96;100.00
57050;BME280;42935;50.966;16.992;2023-04-06T05:15:29;102125.45;;;-4.76;100.00
57050;BME280;42935;50.966;16.992;2023-04-06T05:18:57;102116.31;;;-4.95;100.00
57050;BME280;42935;50.966;16.992;2023-04-06T05:22:24;102131.99;;;-4.64;100.00
57050;BME280;42935;50.966;16.992;2023-04-06T05:25:47;102132.74;;;-4.49;100.00
57050;BME280;42935;50.966;16.992;2023-04-06T05:29:15;102128.85;;;-4.47;100.00
57050;BME280;42935;50.966;16.992;2023-04-06T05:32:38;102140.30;;;-4.24;100.00
57050;BME280;42935;50.966;16.992;2023-04-06T05:35:58;102140.41;;;-4.16;100.00
57050;BME280;42935;50.966;16.992;2023-04-06T05:39:20;102125.55;;;-4.08;100.00
57050;BME280;42935;50.966;16.992;2023-04-06T05:42:48;102135.93;;;-3.89;100.00
57050;BME280;42935;50.966;16.992;2023-04-06T05:46:17;102115.45;;;-4.10;100.00
57050;BME280;42935;50.966;16.992;2023-04-06T05:49:42;102140.41;;;-3.87;100.00
57050;BME280;42935;50.966;16.992;2023-04-06T05:53:07;102125.16;;;-3.75;100.00
57050;BME280;42935;50.966;16.992;2023-04-06T05:56:31;102125.31;;;-3.77;100.00
57050;BME280;42935;50.966;16.992;2023-04-06T05:59:58;102134.27;;;-3.64;100.00
57050;BME280;42935;50.966;16.992;2023-04-06T06:03:22;102129.79;;;-3.58;100.00
57050;BME280;42935;50.966;16.992;2023-04-06T06:06:48;102132.53;;;-3.48;100.00
57050;BME280;42935;50.966;16.992;2023-04-06T06:10:12;102133.95;;;-3.27;100.00
57050;BME280;42935;50.966;16.992;2023-04-06T06:13:39;102131.31;;;-3.21;100.00
57050;BME280;42935;50.966;16.992;2023-04-06T06:17:03;102126.54;;;-3.19;100.00
57050;BME280;42935;50.966;16.992;2023-04-06T06:20:27;102138.22;;;-3.08;100.00
57050;BME280;42935;50.966;16.992;2023-04-06T06:23:50;102143.13;;;-2.96;100.00
57050;BME280;42935;50.966;16.992;2023-04-06T06:27:20;102143.48;;;-2.73;100.00
57050;BME280;42935;50.966;16.992;2023-04-06T06:30:49;102140.49;;;-2.67;100.00
57050;BME280;42935;50.966;16.992;2023-04-06T06:34:13;102131.13;;;-2.54;100.00
57050;BME280;42935;50.966;16.992;2023-04-06T06:37:41;102136.55;;;-2.37;100.00
57050;BME280;42935;50.966;16.992;2023-04-06T06:41:08;102124.16;;;-2.12;100.00
57050;BME280;42935;50.966;16.992;2023-04-06T06:44:32;102138.25;;;-2.01;100.00
57050;BME280;42935;50.966;16.992;2023-04-06T06:47:59;102144.10;;;-1.99;100.00
57050;BME280;42935;50.966;16.992;2023-04-06T06:51:21;102143.61;;;-1.81;100.00
57050;BME280;42935;50.966;16.992;2023-04-06T06:54:43;102141.27;;;-1.63;100.00
57050;BME280;42935;50.966;16.992;2023-04-06T06:58:10;102143.57;;;-1.59;100.00
57050;BME280;42935;50.966;16.992;2023-04-06T07:01:34;102127.73;;;-1.54;100.00
57050;BME280;42935;50.966;16.992;2023-04-06T07:05:02;102121.86;;;-1.52;100.00
57050;BME280;42935;50.966;16.992;2023-04-06T07:08:29;102126.71;;;-1.79;100.00
57050;BME280;42935;50.966;16.992;2023-04-06T07:11:53;102137.87;;;-1.79;100.00
57050;BME280;42935;50.966;16.992;2023-04-06T07:15:18;102138.91;;;-1.65;100.00
57050;BME280;42935;50.966;16.992;2023-04-06T07:18:43;102130.77;;;-1.95;100.00
57050;BME280;42935;50.966;16.992;2023-04-06T07:22:04;102141.42;;;-1.94;100.00
57050;BME280;42935;50.966;16.992;2023-04-06T07:25:24;102141.89;;;-1.20;100.00
57050;BME280;42935;50.966;16.992;2023-04-06T07:28:52;102133.70;;;-0.85;100.00
57050;BME280;42935;50.966;16.992;2023-04-06T07:32:20;102121.95;;;-0.46;100.00
57050;BME280;42935;50.966;16.992;2023-04-06T07:35:39;102134.52;;;-0.35;100.00
57050;BME280;42935;50.966;16.992;2023-04-06T07:39:05;102134.56;;;0.08;100.00
57050;BME280;42935;50.966;16.992;2023-04-06T07:42:33;102129.11;;;0.23;100.00
57050;BME280;42935;50.966;16.992;2023-04-06T07:45:57;102127.93;;;0.05;100.00
57050;BME280;42935;50.966;16.992;2023-04-06T07:49:22;102130.79;;;0.20;100.00
57050;BME280;42935;50.966;16.992;2023-04-06T07:52:49;102126.91;;;0.42;100.00
57050;BME280;42935;50.966;16.992;2023-04-06T07:56:17;102126.13;;;0.22;100.00
57050;BME280;42935;50.966;16.992;2023-04-06T07:59:40;102145.63;;;0.19;100.00
57050;BME280;42935;50.966;16.992;2023-04-06T08:03:02;102094.62;;;0.19;100.00
57050;BME280;42935;50.966;16.992;2023-04-06T08:06:29;102129.45;;;0.33;100.00
57050;BME280;42935;50.966;16.992;2023-04-06T08:09:56;102132.56;;;0.42;100.00
57050;BME280;42935;50.966;16.992;2023-04-06T08:13:17;102137.05;;;0.79;100.00
57050;BME280;42935;50.966;16.992;2023-04-06T08:16:37;102140.13;;;1.11;100.00
57050;BME280;42935;50.966;16.992;2023-04-06T08:19:57;102138.35;;;1.30;100.00
57050;BME280;42935;50.966;16.992;2023-04-06T08:23:25;102132.85;;;1.46;100.00
57050;BME280;42935;50.966;16.992;2023-04-06T08:26:48;102113.73;;;1.42;100.00
57050;BME280;42935;50.966;16.992;2023-04-06T08:30:13;102118.44;;;1.57;100.00
57050;BME280;42935;50.966;16.992;2023-04-06T08:33:41;102124.54;;;1.61;100.00
57050;BME280;42935;50.966;16.992;2023-04-06T08:37:08;102135.27;;;1.85;100.00
57050;BME280;42935;50.966;16.992;2023-04-06T08:40:39;102133.74;;;2.11;100.00
57050;BME280;42935;50.966;16.992;2023-04-06T08:44:08;102120.73;;;2.20;100.00
57050;BME280;42935;50.966;16.992;2023-04-06T08:47:37;102125.83;;;2.13;100.00
57050;BME280;42935;50.966;16.992;2023-04-06T08:51:01;102124.95;;;2.44;100.00
57050;BME280;42935;50.966;16.992;2023-04-06T08:54:28;102075.81;;;2.34;100.00
57050;BME280;42935;50.966;16.992;2023-04-06T08:57:52;102118.71;;;2.76;97.01
57050;BME280;42935;50.966;16.992;2023-04-06T09:01:20;102116.84;;;3.00;97.07
57050;BME280;42935;50.966;16.992;2023-04-06T09:04:53;102116.73;;;2.93;97.83
57050;BME280;42935;50.966;16.992;2023-04-06T09:08:16;102102.79;;;2.95;92.77
57050;BME280;42935;50.966;16.992;2023-04-06T09:11:42;102106.21;;;3.09;87.88
57050;BME280;42935;50.966;16.992;2023-04-06T09:15:18;102116.87;;;3.48;88.02
57050;BME280;42935;50.966;16.992;2023-04-06T09:18:42;102102.36;;;3.48;77.81
57050;BME280;42935;50.966;16.992;2023-04-06T09:22:06;102109.39;;;3.76;76.54
57050;BME280;42935;50.966;16.992;2023-04-06T09:25:31;102106.52;;;3.84;74.69
57050;BME280;42935;50.966;16.992;2023-04-06T09:28:59;102090.61;;;4.01;71.81
57050;BME280;42935;50.966;16.992;2023-04-06T09:32:26;102084.30;;;3.99;70.08
57050;BME280;42935;50.966;16.992;2023-04-06T09:35:52;102085.36;;;4.39;70.07
57050;BME280;42935;50.966;16.992;2023-04-06T09:39:23;102091.56;;;4.53;69.08
57050;BME280;42935;50.966;16.992;2023-04-06T09:42:49;102089.98;;;4.79;69.65
57050;BME280;42935;50.966;16.992;2023-04-06T09:46:12;102082.23;;;4.77;68.58
57050;BME280;42935;50.966;16.992;2023-04-06T09:49:35;102082.58;;;4.95;66.24
57050;BME280;42935;50.966;16.992;2023-04-06T09:52:57;102062.45;;;4.89;65.13
57050;BME280;42935;50.966;16.992;2023-04-06T09:56:17;102086.50;;;5.02;63.92
57050;BME280;42935;50.966;16.992;2023-04-06T10:06:49;102081.67;;;5.65;62.77
57050;BME280;42935;50.966;16.992;2023-04-06T10:10:17;102066.28;;;5.20;61.52
57050;BME280;42935;50.966;16.992;2023-04-06T10:13:37;102070.36;;;5.47;62.93
57050;BME280;42935;50.966;16.992;2023-04-06T10:18:30;102055.64;;;6.20;63.16
57050;BME280;42935;50.966;16.992;2023-04-06T10:21:52;102063.36;;;6.25;60.34
57050;BME280;42935;50.966;16.992;2023-04-06T10:25:25;102058.10;;;6.00;59.36
57050;BME280;42935;50.966;16.992;2023-04-06T10:28:46;102049.78;;;6.26;58.96
57050;BME280;42935;50.966;16.992;2023-04-06T10:32:05;102047.42;;;6.33;59.17
57050;BME280;42935;50.966;16.992;2023-04-06T10:35:38;102037.44;;;6.23;58.04
57050;BME280;42935;50.966;16.992;2023-04-06T10:39:05;102042.32;;;6.14;57.42
57050;BME280;42935;50.966;16.992;2023-04-06T10:42:35;102005.01;;;6.01;57.76
57050;BME280;42935;50.966;16.992;2023-04-06T10:45:57;102023.98;;;6.11;57.38
57050;BME280;42935;50.966;16.992;2023-04-06T10:49:18;102037.58;;;6.69;57.11
57050;BME280;42935;50.966;16.992;2023-04-06T10:52:38;102023.84;;;6.93;55.69
57050;BME280;42935;50.966;16.992;2023-04-06T10:56:04;102034.05;;;7.33;55.41
57050;BME280;42935;50.966;16.992;2023-04-06T10:59:32;102022.06;;;7.04;54.41
57050;BME280;42935;50.966;16.992;2023-04-06T11:02:59;102010.35;;;7.33;56.25
57050;BME280;42935;50.966;16.992;2023-04-06T11:06:29;102011.42;;;7.14;53.53
57050;BME280;42935;50.966;16.992;2023-04-06T11:09:59;102014.53;;;6.70;54.10
57050;BME280;42935;50.966;16.992;2023-04-06T11:13:25;101996.47;;;7.02;53.99
57050;BME280;42935;50.966;16.992;2023-04-06T11:16:47;102020.25;;;6.72;54.40
57050;BME280;42935;50.966;16.992;2023-04-06T11:20:10;102008.78;;;6.87;54.91
57050;BME280;42935;50.966;16.992;2023-04-06T11:23:40;102015.50;;;6.57;53.96
57050;BME280;42935;50.966;16.992;2023-04-06T11:26:58;102007.49;;;7.03;54.45
57050;BME280;42935;50.966;16.992;2023-04-06T11:30:23;101985.38;;;7.62;55.06
57050;BME280;42935;50.966;16.992;2023-04-06T11:33:41;101986.53;;;7.24;53.13
57050;BME280;42935;50.966;16.992;2023-04-06T11:37:03;101986.52;;;6.84;53.79
57050;BME280;42935;50.966;16.992;2023-04-06T11:40:30;101992.82;;;7.27;54.35
57050;BME280;42935;50.966;16.992;2023-04-06T11:43:55;101978.50;;;7.72;53.08
57050;BME280;42935;50.966;16.992;2023-04-06T11:47:13;101986.83;;;8.25;53.86
57050;BME280;42935;50.966;16.992;2023-04-06T11:50:41;101985.63;;;8.62;51.38
57050;BME280;42935;50.966;16.992;2023-04-06T11:54:01;101980.15;;;8.11;50.37
57050;BME280;42935;50.966;16.992;2023-04-06T11:57:22;101977.77;;;7.78;51.24
57050;BME280;42935;50.966;16.992;2023-04-06T12:00:43;101970.23;;;7.92;51.68
57050;BME280;42935;50.966;16.992;2023-04-06T12:04:04;101972.07;;;7.50;51.62
57050;BME280;42935;50.966;16.992;2023-04-06T12:07:30;101964.35;;;8.15;52.15
57050;BME280;42935;50.966;16.992;2023-04-06T12:10:54;101965.19;;;7.74;50.60
57050;BME280;42935;50.966;16.992;2023-04-06T12:14:14;101951.57;;;6.98;51.12
57050;BME280;42935;50.966;16.992;2023-04-06T12:17:39;101942.38;;;8.14;51.82
57050;BME280;42935;50.966;16.992;2023-04-06T12:20:56;101952.15;;;8.34;50.26
57050;BME280;42935;50.966;16.992;2023-04-06T12:24:12;101935.00;;;8.53;50.11
57050;BME280;42935;50.966;16.992;2023-04-06T12:27:33;101948.95;;;8.36;50.31
57050;BME280;42935;50.966;16.992;2023-04-06T12:31:00;101930.11;;;8.14;50.85
57050;BME280;42935;50.966;16.992;2023-04-06T12:34:21;101931.80;;;8.48;50.02
57050;BME280;42935;50.966;16.992;2023-04-06T12:37:42;101916.59;;;8.25;49.79
57050;BME280;42935;50.966;16.992;2023-04-06T12:41:03;101920.07;;;8.00;48.97
57050;BME280;42935;50.966;16.992;2023-04-06T12:44:28;101919.48;;;8.88;49.51
57050;BME280;42935;50.966;16.992;2023-04-06T12:47:52;101919.17;;;9.02;48.99
57050;BME280;42935;50.966;16.992;2023-04-06T12:51:20;101903.48;;;8.97;47.75
57050;BME280;42935;50.966;16.992;2023-04-06T12:54:35;101907.58;;;9.03;47.26
57050;BME280;42935;50.966;16.992;2023-04-06T12:57:59;101897.33;;;8.75;48.39
57050;BME280;42935;50.966;16.992;2023-04-06T13:01:21;101896.91;;;9.17;47.66
57050;BME280;42935;50.966;16.992;2023-04-06T13:04:37;101895.02;;;9.57;47.36
57050;BME280;42935;50.966;16.992;2023-04-06T13:08:01;101889.08;;;10.05;47.88
57050;BME280;42935;50.966;16.992;2023-04-06T13:11:38;101888.08;;;9.75;46.47
57050;BME280;42935;50.966;16.992;2023-04-06T13:15:10;101895.13;;;9.35;47.22
57050;BME280;42935;50.966;16.992;2023-04-06T13:18:39;101890.72;;;10.04;47.44
57050;BME280;42935;50.966;16.992;2023-04-06T13:22:13;101876.29;;;9.84;46.64
57050;BME280;42935;50.966;16.992;2023-04-06T13:25:34;101864.08;;;10.69;47.85
57050;BME280;42935;50.966;16.992;2023-04-06T13:29:00;101866.33;;;11.66;46.87
57050;BME280;42935;50.966;16.992;2023-04-06T13:32:25;101870.90;;;10.89;44.70
57050;BME280;42935;50.966;16.992;2023-04-06T13:35:49;101834.39;;;11.11;45.52
57050;BME280;42935;50.966;16.992;2023-04-06T13:39:08;101849.84;;;11.49;44.26
57050;BME280;42935;50.966;16.992;2023-04-06T13:42:33;101851.45;;;11.23;45.05
57050;BME280;42935;50.966;16.992;2023-04-06T13:46:00;101802.48;;;10.72;44.39
57050;BME280;42935;50.966;16.992;2023-04-06T13:49:18;101855.60;;;11.10;44.64
57050;BME280;42935;50.966;16.992;2023-04-06T13:52:36;101858.30;;;11.19;45.27
57050;BME280;42935;50.966;16.992;2023-04-06T13:56:01;101848.21;;;10.73;44.11
57050;BME280;42935;50.966;16.992;2023-04-06T13:59:21;101850.30;;;10.51;44.32
57050;BME280;42935;50.966;16.992;2023-04-06T14:02:45;101841.55;;;10.37;44.93
57050;BME280;42935;50.966;16.992;2023-04-06T14:06:12;101852.73;;;10.53;44.37
57050;BME280;42935;50.966;16.992;2023-04-06T14:09:30;101849.57;;;10.59;44.80
57050;BME280;42935;50.966;16.992;2023-04-06T14:12:51;101848.23;;;10.87;45.89
57050;BME280;42935;50.966;16.992;2023-04-06T14:16:14;101844.19;;;10.63;45.02
57050;BME280;42935;50.966;16.992;2023-04-06T14:19:40;101839.46;;;11.10;44.49
57050;BME280;42935;50.966;16.992;2023-04-06T14:23:02;101840.13;;;10.49;44.60
57050;BME280;42935;50.966;16.992;2023-04-06T14:26:23;101838.27;;;10.74;44.25
57050;BME280;42935;50.966;16.992;2023-04-06T14:29:45;101834.63;;;10.87;44.53
57050;BME280;42935;50.966;16.992;2023-04-06T14:33:12;101815.05;;;11.98;44.22
57050;BME280;42935;50.966;16.992;2023-04-06T14:36:38;101835.59;;;11.89;43.12
57050;BME280;42935;50.966;16.992;2023-04-06T14:39:58;101828.17;;;11.77;42.82
57050;BME280;42935;50.966;16.992;2023-04-06T14:43:18;101824.37;;;12.08;43.23
57050;BME280;42935;50.966;16.992;2023-04-06T14:46:42;101808.53;;;12.24;43.17
57050;BME280;42935;50.966;16.992;2023-04-06T14:50:09;101819.42;;;12.68;43.88
57050;BME280;42935;50.966;16.992;2023-04-06T14:53:30;101795.40;;;12.19;42.91
57050;BME280;42935;50.966;16.992;2023-04-06T14:56:56;101802.79;;;11.91;43.13
57050;BME280;42935;50.966;16.992;2023-04-06T15:00:18;101821.72;;;12.21;43.44
57050;BME280;42935;50.966;16.992;2023-04-06T15:03:36;101808.91;;;11.90;43.29
57050;BME280;42935;50.966;16.992;2023-04-06T15:06:57;101814.14;;;11.43;43.26
57050;BME280;42935;50.966;16.992;2023-04-06T15:10:19;101790.71;;;11.09;43.72
57050;BME280;42935;50.966;16.992;2023-04-06T15:13:45;101790.25;;;11.81;44.16
57050;BME280;42935;50.966;16.992;2023-04-06T15:17:02;101811.62;;;12.01;42.81
57050;BME280;42935;50.966;16.992;2023-04-06T15:20:21;101807.95;;;12.59;43.59
57050;BME280;42935;50.966;16.992;2023-04-06T15:23:39;101811.10;;;11.89;43.20
57050;BME280;42935;50.966;16.992;2023-04-06T15:27:01;101799.89;;;12.10;43.01
57050;BME280;42935;50.966;16.992;2023-04-06T15:30:22;101793.79;;;12.29;43.57
57050;BME280;42935;50.966;16.992;2023-04-06T15:33:38;101799.08;;;11.54;43.01
57050;BME280;42935;50.966;16.992;2023-04-06T15:36:59;101786.78;;;11.94;43.20
57050;BME280;42935;50.966;16.992;2023-04-06T15:40:22;101805.20;;;11.81;42.80
57050;BME280;42935;50.966;16.992;2023-04-06T15:43:43;101792.62;;;11.61;43.07
57050;BME280;42935;50.966;16.992;2023-04-06T15:47:07;101780.18;;;11.17;43.39
57050;BME280;42935;50.966;16.992;2023-04-06T15:50:27;101800.63;;;11.38;43.35
57050;BME280;42935;50.966;16.992;2023-04-06T15:53:50;101797.55;;;11.19;43.67
57050;BME280;42935;50.966;16.992;2023-04-06T15:57:11;101802.41;;;10.78;43.73
57050;BME280;42935;50.966;16.992;2023-04-06T16:00:32;101807.24;;;10.63;43.75
57050;BME280;42935;50.966;16.992;2023-04-06T16:03:54;101793.65;;;9.86;44.57
57050;BME280;42935;50.966;16.992;2023-04-06T16:07:15;101796.19;;;9.85;44.88
57050;BME280;42935;50.966;16.992;2023-04-06T16:10:36;101802.99;;;9.63;44.63
57050;BME280;42935;50.966;16.992;2023-04-06T16:13:54;101804.52;;;9.89;45.29
57050;BME280;42935;50.966;16.992;2023-04-06T16:17:16;101803.80;;;9.44;45.65
57050;BME280;42935;50.966;16.992;2023-04-06T16:20:36;101782.87;;;9.14;45.78
57050;BME280;42935;50.966;16.992;2023-04-06T16:24:03;101800.41;;;9.20;45.98
57050;BME280;42935;50.966;16.992;2023-04-06T16:27:25;101802.80;;;9.19;46.66
57050;BME280;42935;50.966;16.992;2023-04-06T16:30:54;101799.32;;;9.13;46.38
57050;BME280;42935;50.966;16.992;2023-04-06T16:34:19;101804.23;;;8.80;46.75
57050;BME280;42935;50.966;16.992;2023-04-06T16:37:43;101804.25;;;8.68;46.76
57050;BME280;42935;50.966;16.992;2023-04-06T16:41:04;101803.61;;;8.65;47.26
57050;BME280;42935;50.966;16.992;2023-04-06T16:44:27;101798.93;;;8.00;47.06
57050;BME280;42935;50.966;16.992;2023-04-06T16:47:47;101797.84;;;7.71;48.45
57050;BME280;42935;50.966;16.992;2023-04-06T16:51:09;101807.12;;;7.77;48.79
57050;BME280;42935;50.966;16.992;2023-04-06T16:54:26;101809.67;;;7.79;49.03
57050;BME280;42935;50.966;16.992;2023-04-06T16:57:51;101791.18;;;7.53;49.45
57050;BME280;42935;50.966;16.992;2023-04-06T17:01:22;101810.03;;;7.53;49.59
57050;BME280;42935;50.966;16.992;2023-04-06T17:04:44;101810.59;;;7.16;50.22
57050;BME280;42935;50.966;16.992;2023-04-06T17:08:04;101813.35;;;7.25;50.81
57050;BME280;42935;50.966;16.992;2023-04-06T17:11:20;101809.37;;;6.96;50.83
57050;BME280;42935;50.966;16.992;2023-04-06T17:14:39;101799.47;;;6.90;51.00
57050;BME280;42935;50.966;16.992;2023-04-06T17:18:03;101816.22;;;6.73;51.77
57050;BME280;42935;50.966;16.992;2023-04-06T17:21:28;101819.99;;;6.59;52.16
57050;BME280;42935;50.966;16.992;2023-04-06T17:24:50;101818.73;;;6.52;52.73
57050;BME280;42935;50.966;16.992;2023-04-06T17:28:10;101822.63;;;6.29;52.99
57050;BME280;42935;50.966;16.992;2023-04-06T17:31:27;101827.37;;;6.17;53.70
57050;BME280;42935;50.966;16.992;2023-04-06T17:34:48;101817.28;;;6.00;53.86
57050;BME280;42935;50.966;16.992;2023-04-06T17:38:08;101830.87;;;6.14;54.25